Gaston, South Carolina
Current Conditions -  °F | °C
As of 1:56 PM on Friday 24 Oct 2014 (Local Time) from KCAE Reporting Station
Scattered Clouds Scattered Clouds  
Wind Chill: 69°   Ceiling: Unl
Heat Index: 69°   Visibility: 10mi
Dew Point: 43°   Wind: 3mph
Humidity: 39%   Direction: NA
Pressure: 30.02"   Gusts: NA
Location:  33.82°N, 81.1°W
Report Text: KCAE 241756Z VRB03KT 10SM FEW060 SCT220 21/06 A3002 RMK AO2 SLP164 VIRGA T02060061 10211 20078 58027
Loading
Personal Weather Stations






























Interactive Weather Map
Tropical Storm Tracking
New forecast layout! Learn more

10-Day Weather Forecast

Advertisements
Track Severe Weather on mobile